Time;durP1;ratioP1;P1;durP2;ratioP2;P2;SDS_P1;SDS_P2;PMS_P1;PMS_P2;Temp;Humidity;BMP_temperature;BMP_pressure;BME280_temperature;BME280_humidity;BME280_pressure;Samples;Min_cycle;Max_cycle;Signal;HPM_P1;HPM_P2
2023/06/10 00:00:43;;;;;;;9.48;4.63;;;20.20;79.00;;;;;;5058879;28;20045;-55
2023/06/10 00:03:10;;;;;;;8.70;4.35;;;20.20;79.10;;;;;;5058516;28;20060;-55
2023/06/10 00:05:38;;;;;;;7.03;4.00;;;20.10;79.20;;;;;;5059051;28;20113;-55
2023/06/10 00:08:07;;;;;;;6.13;3.42;;;20.10;79.30;;;;;;5056926;28;20049;-56
2023/06/10 00:10:37;;;;;;;7.45;3.72;;;20.00;79.40;;;;;;5058947;28;20106;-56
2023/06/10 00:13:09;;;;;;;6.90;3.90;;;20.00;79.40;;;;;;5059244;28;20067;-57
2023/06/10 00:15:35;;;;;;;9.38;3.53;;;19.90;79.40;;;;;;5063071;28;20409;-56
2023/06/10 00:18:02;;;;;;;7.82;3.50;;;19.90;79.40;;;;;;5063052;28;20043;-56
2023/06/10 00:20:27;;;;;;;5.97;3.72;;;19.90;79.40;;;;;;5062522;28;20049;-56
2023/06/10 00:22:53;;;;;;;6.53;3.58;;;19.80;79.40;;;;;;5063218;28;20037;-56
2023/06/10 00:25:19;;;;;;;8.35;3.70;;;19.80;79.30;;;;;;5062252;28;20076;-56
2023/06/10 00:27:44;;;;;;;7.32;3.75;;;19.80;79.40;;;;;;5062760;28;20120;-56
2023/06/10 00:30:11;;;;;;;7.70;4.10;;;19.70;79.50;;;;;;5061017;28;20041;-56
2023/06/10 00:32:37;;;;;;;9.60;3.90;;;19.70;79.50;;;;;;5062651;28;20501;-55
2023/06/10 00:35:04;;;;;;;7.85;3.70;;;19.60;79.40;;;;;;5062582;28;20378;-55
2023/06/10 00:37:30;;;;;;;8.23;4.28;;;19.60;79.60;;;;;;5062409;28;20045;-56
2023/06/10 00:39:56;;;;;;;6.18;4.03;;;19.60;79.60;;;;;;5062708;28;20048;-56
2023/06/10 00:42:23;;;;;;;7.15;3.60;;;19.50;80.30;;;;;;5061930;28;20068;-56
2023/06/10 00:44:50;;;;;;;9.35;3.67;;;19.50;79.80;;;;;;5062337;28;20051;-56
2023/06/10 00:47:16;;;;;;;8.63;3.65;;;19.50;79.90;;;;;;5062205;28;20044;-56
2023/06/10 00:49:42;;;;;;;10.13;3.78;;;19.40;80.00;;;;;;5062215;28;20560;-56
2023/06/10 00:52:10;;;;;;;6.70;3.45;;;19.40;80.00;;;;;;5062170;28;20041;-56
2023/06/10 00:54:37;;;;;;;7.35;3.72;;;19.30;80.00;;;;;;5062108;28;20048;-56
2023/06/10 00:57:03;;;;;;;6.63;3.63;;;19.30;80.10;;;;;;5062382;28;20048;-56
2023/06/10 00:59:30;;;;;;;6.68;3.67;;;19.20;80.20;;;;;;5061700;28;20100;-55
2023/06/10 01:01:56;;;;;;;7.75;3.85;;;19.20;80.30;;;;;;5062098;28;20047;-56
2023/06/10 01:04:23;;;;;;;6.60;3.83;;;19.20;80.50;;;;;;5061694;28;20116;-56
2023/06/10 01:07:09;;;;;;;5.78;3.65;;;19.20;80.60;;;;;;5062017;28;20053;-56
2023/06/10 01:09:41;;;;;;;6.70;3.88;;;19.10;80.80;;;;;;5061929;28;20057;-56
2023/06/10 01:12:36;;;;;;;5.88;3.78;;;18.80;80.80;;;;;;5061516;28;20045;-56
2023/06/10 01:15:03;;;;;;;6.07;4.00;;;19.10;81.30;;;;;;5062116;28;20100;-57
2023/06/10 01:17:30;;;;;;;9.68;3.97;;;19.00;81.20;;;;;;5061663;28;20049;-56
2023/06/10 01:19:59;;;;;;;8.00;4.28;;;19.00;81.40;;;;;;5060410;28;20045;-56
2023/06/10 01:22:31;;;;;;;7.45;3.63;;;18.90;82.30;;;;;;5061877;28;20045;-56
2023/06/10 01:24:58;;;;;;;6.65;4.00;;;18.90;82.00;;;;;;5060580;28;20102;-56
2023/06/10 01:27:31;;;;;;;5.85;3.90;;;18.80;82.20;;;;;;5061727;28;20894;-56
2023/06/10 01:30:07;;;;;;;7.07;4.18;;;18.80;82.40;;;;;;5061128;28;20029;-55
2023/06/10 01:32:40;;;;;;;;;;;18.80;82.70;;;;;;5062148;28;20053;-56
2023/06/10 01:35:07;;;;;;;6.05;4.22;;;18.70;83.30;;;;;;5061574;28;20412;-55
2023/06/10 01:37:34;;;;;;;6.80;4.03;;;18.70;82.60;;;;;;5061043;28;20041;-56
2023/06/10 01:40:03;;;;;;;5.90;4.13;;;18.70;82.90;;;;;;5061649;28;20060;-55
2023/06/10 01:42:29;;;;;;;7.70;4.00;;;18.60;83.00;;;;;;5061010;28;20083;-56
2023/06/10 01:44:55;;;;;;;6.20;3.72;;;18.60;83.30;;;;;;5061336;28;20107;-56
2023/06/10 01:47:21;;;;;;;9.02;4.47;;;18.50;83.60;;;;;;5061011;28;20573;-56
2023/06/10 01:49:46;;;;;;;7.00;3.85;;;18.50;83.80;;;;;;5061347;28;20516;-56
2023/06/10 01:52:12;;;;;;;6.47;3.67;;;18.50;83.90;;;;;;5060949;28;20045;-56
2023/06/10 01:54:38;;;;;;;7.97;3.80;;;18.40;84.20;;;;;;5061078;28;20037;-56
2023/06/10 01:57:06;;;;;;;7.57;3.95;;;18.40;84.40;;;;;;5061321;28;20049;-56
2023/06/10 01:59:31;;;;;;;8.43;4.45;;;18.30;84.60;;;;;;5060494;28;20049;-55
2023/06/10 02:01:57;;;;;;;6.40;4.03;;;18.40;84.70;;;;;;5061117;28;20048;-56
2023/06/10 02:04:23;;;;;;;7.55;4.43;;;18.30;84.80;;;;;;5060622;28;20045;-56
2023/06/10 02:06:48;;;;;;;6.63;4.20;;;18.40;84.90;;;;;;5060791;28;20045;-56
2023/06/10 02:09:14;;;;;;;10.30;4.15;;;18.30;85.20;;;;;;5060817;28;20068;-55
2023/06/10 02:11:40;;;;;;;7.32;4.32;;;18.30;85.40;;;;;;5060619;28;20072;-56
2023/06/10 02:14:05;;;;;;;9.68;4.20;;;18.30;85.60;;;;;;5060999;28;20045;-55
2023/06/10 02:16:31;;;;;;;7.60;4.28;;;18.20;85.90;;;;;;5060229;28;20051;-56
2023/06/10 02:18:57;;;;;;;9.35;4.07;;;18.20;86.10;;;;;;5059598;28;20067;-56
2023/06/10 02:21:23;;;;;;;7.78;3.78;;;18.10;86.30;;;;;;5059904;28;20045;-56
2023/06/10 02:23:49;;;;;;;7.88;4.18;;;18.10;86.60;;;;;;5060616;28;20052;-56
2023/06/10 02:26:14;;;;;;;7.03;3.95;;;18.10;87.00;;;;;;5060389;28;20033;-56
2023/06/10 02:28:43;;;;;;;8.25;4.13;;;18.00;87.20;;;;;;5060417;28;20124;-56
2023/06/10 02:31:09;;;;;;;8.70;4.10;;;18.00;87.40;;;;;;5060702;28;20045;-56
2023/06/10 02:33:35;;;;;;;9.40;4.30;;;17.90;87.50;;;;;;5060151;28;20053;-55
2023/06/10 02:36:00;;;;;;;8.40;4.25;;;17.90;87.80;;;;;;5059489;28;20496;-56
2023/06/10 02:38:26;;;;;;;8.90;4.53;;;17.90;88.10;;;;;;5059874;28;20029;-55
2023/06/10 02:40:52;;;;;;;7.63;4.55;;;17.80;88.40;;;;;;5060266;28;20041;-54
2023/06/10 02:43:17;;;;;;;9.82;4.45;;;17.80;88.70;;;;;;5059991;28;20029;-57
2023/06/10 02:45:43;;;;;;;7.47;4.65;;;17.70;89.00;;;;;;5060088;28;20033;-56
2023/06/10 02:48:09;;;;;;;9.45;4.47;;;17.70;89.30;;;;;;5060353;28;20072;-56
2023/06/10 02:50:35;;;;;;;7.68;4.63;;;17.70;89.50;;;;;;5059445;28;20044;-56
2023/06/10 02:53:01;;;;;;;7.88;4.28;;;17.60;89.70;;;;;;5060306;28;20049;-56
2023/06/10 02:55:27;;;;;;;6.20;4.15;;;17.60;90.00;;;;;;5059449;28;20052;-56
2023/06/10 02:57:54;;;;;;;6.97;3.85;;;17.60;90.40;;;;;;5058576;28;20045;-56
2023/06/10 03:00:21;;;;;;;10.13;4.43;;;17.60;90.20;;;;;;5059647;28;20091;-56
2023/06/10 03:02:47;;;;;;;9.05;4.38;;;17.50;90.30;;;;;;5059755;28;20037;-56
2023/06/10 03:05:12;;;;;;;5.80;4.15;;;17.50;90.50;;;;;;5059745;28;20049;-55
2023/06/10 03:07:39;;;;;;;9.27;4.38;;;17.50;90.60;;;;;;5059185;28;20040;-55
2023/06/10 03:10:06;;;;;;;7.72;4.60;;;17.40;90.70;;;;;;5059985;28;20074;-56
2023/06/10 03:12:31;;;;;;;7.18;4.25;;;17.40;90.90;;;;;;5059022;28;20052;-56
2023/06/10 03:14:57;;;;;;;8.38;4.38;;;17.40;91.10;;;;;;5059583;28;20037;-56
2023/06/10 03:17:23;;;;;;;7.07;4.25;;;17.30;91.30;;;;;;5059208;28;20064;-55
2023/06/10 03:19:49;;;;;;;7.97;4.50;;;17.30;91.40;;;;;;5059407;28;20041;-55
2023/06/10 03:22:16;;;;;;;8.98;4.53;;;17.30;91.50;;;;;;5059510;28;20068;-55
2023/06/10 03:24:43;;;;;;;9.27;4.43;;;17.20;91.70;;;;;;5058991;28;20386;-56
2023/06/10 03:27:13;;;;;;;9.23;4.88;;;17.20;91.80;;;;;;5059584;28;20045;-55
2023/06/10 03:29:39;;;;;;;7.07;4.40;;;17.20;92.00;;;;;;5058969;28;20087;-56
2023/06/10 03:32:05;;;;;;;8.45;4.40;;;17.10;92.40;;;;;;5059364;28;20037;-56
2023/06/10 03:34:31;;;;;;;7.93;4.75;;;17.10;92.40;;;;;;5057764;28;20041;-56
2023/06/10 03:36:57;;;;;;;8.68;4.60;;;17.10;92.50;;;;;;5059291;28;20090;-56
2023/06/10 03:39:23;;;;;;;7.30;4.85;;;17.10;92.70;;;;;;5059436;28;20048;-56
2023/06/10 03:41:52;;;;;;;9.25;4.75;;;17.00;93.00;;;;;;5058746;28;20053;-56
2023/06/10 03:44:17;;;;;;;10.70;4.53;;;17.00;93.20;;;;;;5059466;28;20033;-56
2023/06/10 03:46:43;;;;;;;8.88;4.65;;;17.00;93.40;;;;;;5058266;28;20052;-56
2023/06/10 03:49:09;;;;;;;9.10;5.18;;;17.00;93.50;;;;;;5059264;28;20112;-56
2023/06/10 03:51:35;;;;;;;9.32;4.55;;;16.90;93.70;;;;;;5058466;28;20041;-56
2023/06/10 03:54:01;;;;;;;9.02;4.68;;;16.90;93.90;;;;;;5059201;28;20051;-56
2023/06/10 03:56:28;;;;;;;10.52;4.85;;;16.90;94.20;;;;;;5059311;28;20045;-56
2023/06/10 03:58:54;;;;;;;9.20;4.60;;;16.80;94.30;;;;;;5058591;28;20045;-56
2023/06/10 04:01:20;;;;;;;7.82;4.43;;;16.80;94.50;;;;;;5059143;28;20041;-56
2023/06/10 04:03:48;;;;;;;7.65;4.55;;;16.80;94.70;;;;;;5058483;28;20049;-56
2023/06/10 04:06:14;;;;;;;8.60;4.38;;;16.80;95.00;;;;;;5058893;28;20045;-56
2023/06/10 04:08:41;;;;;;;6.40;4.25;;;16.70;95.20;;;;;;5058541;28;20107;-55
2023/06/10 04:11:07;;;;;;;8.65;4.68;;;16.70;95.40;;;;;;5058826;28;20049;-56
2023/06/10 04:13:32;;;;;;;7.10;4.43;;;16.70;95.70;;;;;;5058912;28;20080;-56
2023/06/10 04:15:58;;;;;;;7.97;4.32;;;16.70;95.70;;;;;;5058572;28;20064;-56
2023/06/10 04:18:24;;;;;;;7.70;4.65;;;16.70;96.00;;;;;;5057768;28;20049;-56
2023/06/10 04:20:49;;;;;;;7.13;4.25;;;16.70;96.00;;;;;;5058030;28;20045;-56
2023/06/10 04:23:15;;;;;;;7.20;4.32;;;16.70;96.10;;;;;;5058922;28;20550;-56
2023/06/10 04:25:41;;;;;;;8.25;4.68;;;16.70;96.40;;;;;;5058408;28;20128;-55
2023/06/10 04:28:06;;;;;;;8.55;4.80;;;16.70;96.50;;;;;;5058712;28;20037;-55
2023/06/10 04:30:33;;;;;;;7.57;4.28;;;16.70;96.70;;;;;;5058467;28;20045;-55
2023/06/10 04:32:59;;;;;;;7.07;4.20;;;16.70;96.90;;;;;;5058652;28;20037;-56
2023/06/10 04:35:27;;;;;;;7.78;4.10;;;16.70;97.10;;;;;;5058946;28;20037;-56
2023/06/10 04:37:53;;;;;;;8.07;4.22;;;16.60;97.10;;;;;;5058024;28;20039;-56
2023/06/10 04:40:19;;;;;;;9.25;4.53;;;16.70;97.30;;;;;;5058776;28;20071;-56
2023/06/10 04:42:45;;;;;;;6.45;3.92;;;16.70;97.30;;;;;;5058286;28;20045;-56
2023/06/10 04:45:11;;;;;;;6.95;3.97;;;16.70;97.60;;;;;;5058299;28;20076;-56
2023/06/10 04:47:37;;;;;;;8.73;4.18;;;16.70;97.70;;;;;;5058496;28;20065;-56
2023/06/10 04:50:04;;;;;;;10.02;4.63;;;16.70;97.80;;;;;;5058658;28;20052;-56
2023/06/10 04:52:29;;;;;;;7.63;4.32;;;16.80;97.90;;;;;;5058519;28;20045;-55
2023/06/10 04:54:58;;;;;;;9.85;3.92;;;16.80;98.10;;;;;;5057979;28;20037;-58
2023/06/10 04:57:24;;;;;;;6.20;4.28;;;16.80;98.20;;;;;;5058853;28;20488;-56
2023/06/10 04:59:50;;;;;;;7.88;3.97;;;16.80;98.50;;;;;;5059594;28;20049;-55
2023/06/10 05:02:15;;;;;;;11.77;4.50;;;16.80;98.50;;;;;;5062218;28;20555;-56
2023/06/10 05:04:41;;;;;;;8.05;4.00;;;16.80;98.70;;;;;;5061920;28;20067;-56
2023/06/10 05:07:07;;;;;;;9.50;4.13;;;16.90;98.90;;;;;;5061901;28;20047;-56
2023/06/10 05:09:33;;;;;;;9.25;3.80;;;16.90;99.00;;;;;;5061816;28;20067;-55
2023/06/10 05:11:58;;;;;;;9.85;4.55;;;16.90;99.20;;;;;;5061654;28;20095;-56
2023/06/10 05:14:24;;;;;;;9.82;4.15;;;16.90;99.40;;;;;;5062086;28;20049;-56
2023/06/10 05:16:50;;;;;;;6.18;4.10;;;17.00;99.50;;;;;;5061392;28;20045;-56
2023/06/10 05:19:16;;;;;;;6.85;4.20;;;17.00;99.50;;;;;;5061763;28;20079;-55
2023/06/10 05:21:42;;;;;;;7.47;3.92;;;17.00;99.90;;;;;;5059974;28;20052;-55
2023/06/10 05:24:08;;;;;;;9.57;4.57;;;17.10;99.90;;;;;;5061732;28;20041;-56
2023/06/10 05:26:37;;;;;;;8.27;4.18;;;17.10;99.90;;;;;;5061913;28;20083;-55
2023/06/10 05:29:06;;;;;;;8.63;4.35;;;17.10;99.90;;;;;;5061335;28;20041;-55
2023/06/10 05:31:32;;;;;;;7.15;4.05;;;17.20;99.90;;;;;;5061698;28;20037;-57
2023/06/10 05:33:58;;;;;;;6.45;4.10;;;17.20;99.90;;;;;;5059866;28;20052;-56
2023/06/10 05:36:26;;;;;;;11.07;4.55;;;17.20;99.90;;;;;;5061573;28;20064;-56
2023/06/10 05:38:51;;;;;;;7.28;4.00;;;17.30;99.90;;;;;;5061132;28;20041;-56
2023/06/10 05:41:17;;;;;;;6.63;3.78;;;17.30;99.90;;;;;;5061286;28;20358;-55
2023/06/10 05:43:43;;;;;;;9.50;4.25;;;17.40;99.90;;;;;;5061501;28;20138;-57
2023/06/10 05:46:08;;;;;;;10.98;4.38;;;17.40;99.90;;;;;;5061072;28;20056;-56
2023/06/10 05:48:34;;;;;;;10.82;4.07;;;17.40;99.90;;;;;;5061596;28;20124;-56
2023/06/10 05:51:00;;;;;;;9.25;4.57;;;17.50;99.90;;;;;;5060463;28;20036;-56
2023/06/10 05:53:25;;;;;;;9.52;4.32;;;17.50;99.90;;;;;;5061117;28;20619;-56
2023/06/10 05:55:53;;;;;;;7.68;4.15;;;17.60;99.90;;;;;;5060597;28;20074;-57
2023/06/10 05:58:19;;;;;;;8.00;3.45;;;17.60;99.90;;;;;;5060924;28;20888;-55
2023/06/10 06:00:45;;;;;;;10.13;4.07;;;17.70;99.90;;;;;;5060955;28;20068;-55
2023/06/10 06:03:11;;;;;;;7.68;4.10;;;17.80;99.90;;;;;;5060852;28;20045;-56
2023/06/10 06:05:38;;;;;;;8.93;4.03;;;17.80;99.90;;;;;;5061267;28;20079;-56
2023/06/10 06:08:07;;;;;;;10.52;4.43;;;17.90;99.90;;;;;;5060687;28;20120;-56
2023/06/10 06:10:33;;;;;;;7.40;4.05;;;17.90;99.90;;;;;;5060804;28;20056;-56
2023/06/10 06:13:00;;;;;;;7.88;4.20;;;18.00;99.90;;;;;;5060495;28;20048;-55
2023/06/10 06:15:26;;;;;;;8.40;4.18;;;18.00;99.90;;;;;;5060796;28;20041;-56
2023/06/10 06:17:56;;;;;;;6.55;4.22;;;18.10;99.90;;;;;;5060978;28;20118;-56
2023/06/10 06:20:22;;;;;;;9.00;3.83;;;18.20;99.90;;;;;;5060335;28;20056;-56
2023/06/10 06:22:48;;;;;;;8.40;3.83;;;18.30;99.90;;;;;;5060427;28;20074;-57
2023/06/10 06:25:14;;;;;;;8.88;4.10;;;18.40;99.90;;;;;;5059400;28;20083;-57
2023/06/10 06:27:40;;;;;;;8.27;4.05;;;18.50;99.90;;;;;;5060669;28;20041;-57
2023/06/10 06:30:06;;;;;;;7.82;3.92;;;18.60;99.90;;;;;;5060270;28;20048;-57
2023/06/10 06:32:32;;;;;;;7.55;3.65;;;18.80;99.90;;;;;;5060340;28;20041;-57
2023/06/10 06:34:58;;;;;;;9.13;3.72;;;18.90;99.90;;;;;;5060369;28;20051;-57
2023/06/10 06:37:25;;;;;;;9.32;4.00;;;19.10;99.90;;;;;;5059935;28;20317;-56
2023/06/10 06:39:51;;;;;;;8.65;4.30;;;19.30;99.90;;;;;;5060627;28;20045;-57
2023/06/10 06:42:17;;;;;;;8.27;3.60;;;19.50;99.80;;;;;;5059749;28;20100;-56
2023/06/10 06:44:43;;;;;;;8.73;3.92;;;19.60;99.50;;;;;;5060098;28;20089;-56
2023/06/10 06:47:09;;;;;;;10.25;3.92;;;19.80;99.30;;;;;;5059751;28;20071;-56
2023/06/10 06:49:35;;;;;;;6.82;3.92;;;20.00;99.00;;;;;;5058775;28;20401;-57
2023/06/10 06:52:01;;;;;;;7.70;3.75;;;20.20;99.00;;;;;;5059676;28;20049;-56
2023/06/10 06:54:27;;;;;;;7.85;4.05;;;20.30;98.40;;;;;;5059587;28;20056;-56
2023/06/10 06:56:53;;;;;;;7.85;3.80;;;20.50;98.20;;;;;;5060270;28;20072;-56
2023/06/10 06:59:19;;;;;;;11.73;4.30;;;20.70;98.00;;;;;;5059399;28;20052;-57
2023/06/10 07:01:46;;;;;;;9.75;4.03;;;20.80;97.60;;;;;;5025504;28;20447;-56
2023/06/10 07:04:12;;;;;;;6.68;3.97;;;21.00;97.30;;;;;;5059473;28;20083;-57
2023/06/10 07:06:38;;;;;;;7.90;3.97;;;21.10;97.20;;;;;;5059507;28;20049;-56
2023/06/10 07:09:06;;;;;;;9.25;3.90;;;21.30;97.00;;;;;;5059689;28;20053;-56
2023/06/10 07:11:32;;;;;;;9.45;3.85;;;21.50;96.70;;;;;;5059550;28;20080;-56
2023/06/10 07:13:57;;;;;;;9.20;3.92;;;21.60;96.50;;;;;;5059969;28;20048;-56
2023/06/10 07:16:23;;;;;;;7.50;4.10;;;21.70;96.40;;;;;;5059036;28;20048;-57
2023/06/10 07:18:49;;;;;;;8.75;3.95;;;21.90;96.20;;;;;;5059601;28;20045;-57
2023/06/10 07:21:14;;;;;;;8.73;4.20;;;22.00;96.10;;;;;;5058632;28;20045;-57
2023/06/10 07:23:44;;;;;;;8.52;4.03;;;22.10;95.90;;;;;;5059280;28;20073;-57
2023/06/10 07:26:11;;;;;;;8.75;3.90;;;22.20;95.60;;;;;;5057952;28;20132;-56
2023/06/10 07:28:37;;;;;;;6.43;3.83;;;22.40;95.50;;;;;;5059069;28;20037;-56
2023/06/10 07:31:03;;;;;;;8.23;3.70;;;22.50;95.30;;;;;;5059471;28;20071;-55
2023/06/10 07:33:29;;;;;;;6.72;3.80;;;22.70;95.10;;;;;;5058769;28;20159;-57
2023/06/10 07:35:55;;;;;;;7.72;3.97;;;23.00;94.80;;;;;;5059228;28;20041;-56
2023/06/10 07:38:21;;;;;;;8.18;3.58;;;23.30;94.30;;;;;;5058715;28;20059;-56
2023/06/10 07:40:47;;;;;;;10.57;3.92;;;23.60;93.90;;;;;;5059315;28;20558;-56
2023/06/10 07:43:12;;;;;;;10.48;4.03;;;23.90;93.40;;;;;;5058846;28;20528;-56
2023/06/10 07:45:41;;;;;;;7.07;3.42;;;24.20;92.80;;;;;;5059011;28;20531;-57
2023/06/10 07:48:07;;;;;;;6.97;3.80;;;24.40;92.40;;;;;;5059253;28;20045;-56
2023/06/10 07:50:33;;;;;;;8.88;3.72;;;24.70;92.30;;;;;;5058228;28;20044;-57
2023/06/10 07:52:59;;;;;;;5.93;3.03;;;24.90;91.60;;;;;;5059220;28;20097;-56
2023/06/10 07:55:28;;;;;;;10.75;3.97;;;25.10;91.40;;;;;;5058691;28;20041;-57
2023/06/10 07:57:54;;;;;;;9.43;4.20;;;25.20;91.20;;;;;;5059110;28;20041;-57
2023/06/10 08:00:20;;;;;;;5.95;3.60;;;25.40;90.90;;;;;;5058781;28;20568;-57
2023/06/10 08:02:46;;;;;;;7.50;3.55;;;25.70;90.70;;;;;;5058879;28;20123;-56
2023/06/10 08:05:12;;;;;;;8.02;3.80;;;25.80;90.50;;;;;;5058931;28;20098;-56
2023/06/10 08:07:39;;;;;;;6.63;3.95;;;25.90;90.20;;;;;;5058333;28;20037;-54
2023/06/10 08:10:06;;;;;;;8.13;3.20;;;25.90;89.60;;;;;;5058842;28;20045;-55
2023/06/10 08:12:33;;;;;;;5.18;3.63;;;26.00;88.50;;;;;;5058248;28;20052;-55
2023/06/10 08:14:59;;;;;;;6.93;3.72;;;26.00;88.40;;;;;;5058734;28;20455;-55
2023/06/10 08:17:24;;;;;;;7.28;3.75;;;26.10;87.90;;;;;;5058421;28;20406;-53
2023/06/10 08:19:50;;;;;;;6.85;3.35;;;26.20;87.40;;;;;;5057421;28;20568;-55
2023/06/10 08:22:16;;;;;;;8.75;3.55;;;26.40;86.90;;;;;;5058636;28;20048;-55
2023/06/10 08:24:41;;;;;;;8.27;3.30;;;26.50;85.60;;;;;;5058518;28;20038;-55
2023/06/10 08:27:07;;;;;;;9.30;3.65;;;26.60;84.50;;;;;;5057672;28;20037;-55
2023/06/10 08:29:33;;;;;;;6.05;3.10;;;26.80;84.10;;;;;;5057947;28;20103;-55
2023/06/10 08:31:59;;;;;;;8.43;3.58;;;26.90;83.90;;;;;;5058635;28;20041;-55
2023/06/10 08:34:25;;;;;;;6.68;3.20;;;26.90;83.80;;;;;;5059591;28;20099;-55
2023/06/10 08:36:55;;;;;;;6.18;3.53;;;27.00;83.30;;;;;;5062660;28;20040;-55
2023/06/10 08:39:22;;;;;;;6.75;3.33;;;27.10;82.80;;;;;;5062673;28;20072;-54
2023/06/10 08:42:10;;;;;;;7.07;3.03;;;27.10;80.40;;;;;;5062009;28;20112;-54
2023/06/10 08:44:40;;;;;;;5.55;3.10;;;27.20;78.20;;;;;;5062416;28;20045;-55
2023/06/10 08:47:16;;;;;;;6.93;3.10;;;27.30;79.90;;;;;;5061884;28;20037;-55
2023/06/10 08:49:46;;;;;;;6.25;3.10;;;27.40;78.30;;;;;;5062461;28;20029;-55
2023/06/10 08:52:21;;;;;;;10.82;3.35;;;27.50;77.20;;;;;;5062156;28;20055;-54
2023/06/10 08:55:02;;;;;;;16.42;3.72;;;27.50;75.40;;;;;;5061848;28;20091;-55
2023/06/10 08:57:30;;;;;;;8.80;3.40;;;27.60;76.10;;;;;;5062352;28;20417;-55
2023/06/10 08:59:57;;;;;;;8.18;3.20;;;27.60;75.20;;;;;;5060286;28;20395;-55
2023/06/10 09:02:27;;;;;;;5.90;3.28;;;27.70;75.30;;;;;;5062317;28;20037;-56
2023/06/10 09:04:55;;;;;;;8.27;3.63;;;27.90;75.10;;;;;;5061919;28;20087;-55
2023/06/10 09:07:21;;;;;;;7.90;3.38;;;27.90;74.50;;;;;;5061844;28;20045;-54
2023/06/10 09:09:49;;;;;;;6.30;3.40;;;28.00;73.80;;;;;;5061958;28;20096;-55
2023/06/10 09:12:15;;;;;;;6.05;3.13;;;27.90;73.40;;;;;;5061272;28;20401;-55
2023/06/10 09:14:42;;;;;;;4.90;3.35;;;28.10;73.50;;;;;;5061752;28;20041;-56
2023/06/10 09:17:08;;;;;;;6.85;3.30;;;28.20;72.00;;;;;;5061625;28;20114;-55
2023/06/10 09:19:36;;;;;;;9.07;3.40;;;28.20;71.80;;;;;;5061834;28;20071;-55
2023/06/10 09:22:02;;;;;;;10.13;3.38;;;28.20;72.60;;;;;;5061426;28;20052;-55
2023/06/10 09:24:28;;;;;;;5.18;3.25;;;28.30;72.80;;;;;;5061439;28;20041;-55
2023/06/10 09:27:06;;;;;;;5.45;3.08;;;28.40;73.20;;;;;;5061667;28;20489;-55
2023/06/10 09:29:45;;;;;;;5.85;3.80;;;28.60;73.50;;;;;;5060980;28;20124;-55
2023/06/10 09:32:10;;;;;;;7.55;3.50;;;28.70;73.60;;;;;;5060178;28;20069;-55
2023/06/10 09:34:36;;;;;;;5.95;3.10;;;28.70;72.40;;;;;;5061315;28;20114;-55
2023/06/10 09:37:02;;;;;;;6.25;3.42;;;28.60;71.70;;;;;;5061245;28;20067;-55
2023/06/10 09:39:28;;;;;;;5.45;3.50;;;28.50;72.30;;;;;;5061638;28;20041;-55
2023/06/10 09:41:53;;;;;;;9.55;3.50;;;28.50;72.40;;;;;;5060774;28;20067;-55
2023/06/10 09:44:21;;;;;;;6.32;3.13;;;28.40;72.10;;;;;;5060284;28;20128;-55
2023/06/10 09:46:51;;;;;;;8.63;3.88;;;28.40;72.10;;;;;;5060291;28;20047;-55
2023/06/10 09:49:19;;;;;;;5.32;3.40;;;28.40;72.20;;;;;;5061144;28;20497;-56
2023/06/10 09:51:55;;;;;;;7.22;3.83;;;28.40;71.90;;;;;;5060716;28;20064;-55
2023/06/10 09:54:21;;;;;;;;;;;28.40;71.10;;;;;;5061192;28;20056;-55
2023/06/10 09:56:48;;;;;;;7.57;3.30;;;28.40;71.80;;;;;;5061351;28;20015;-54
2023/06/10 09:59:14;;;;;;;10.05;3.97;;;28.40;71.90;;;;;;5059027;28;20045;-55
2023/06/10 10:01:40;;;;;;;7.57;3.65;;;28.30;71.60;;;;;;5060742;28;20060;-55
2023/06/10 10:04:06;;;;;;;4.82;3.47;;;28.30;70.70;;;;;;5060655;28;20041;-55
2023/06/10 10:06:31;;;;;;;5.72;3.30;;;28.30;71.10;;;;;;5060823;28;20063;-55
2023/06/10 10:08:57;;;;;;;4.80;3.88;;;28.30;71.30;;;;;;5060533;28;20076;-55
2023/06/10 10:11:25;;;;;;;5.40;4.03;;;28.30;70.30;;;;;;5060453;28;20124;-55
2023/06/10 10:13:53;;;;;;;5.10;3.80;;;28.30;69.60;;;;;;5060990;28;20075;-55
2023/06/10 10:16:29;;;;;;;8.02;4.28;;;28.30;69.80;;;;;;5060027;28;20045;-54
2023/06/10 10:18:59;;;;;;;6.65;3.70;;;28.30;68.40;;;;;;5060959;28;20033;-55
2023/06/10 10:21:29;;;;;;;6.03;3.90;;;28.20;68.40;;;;;;5060120;28;20037;-55
2023/06/10 10:24:10;;;;;;;7.85;4.18;;;28.20;68.00;;;;;;5060587;28;20092;-55
2023/06/10 10:26:38;;;;;;;7.30;3.83;;;28.10;67.50;;;;;;5060709;28;20041;-55
2023/06/10 10:29:24;;;;;;;6.75;4.00;;;28.00;67.60;;;;;;5058700;28;20045;-54
2023/06/10 10:31:56;;;;;;;5.88;3.72;;;27.80;67.50;;;;;;5060251;28;20075;-55
2023/06/10 10:34:34;;;;;;;5.30;3.70;;;27.70;67.60;;;;;;5060059;28;20045;-55
2023/06/10 10:37:00;;;;;;;7.10;3.70;;;27.60;67.60;;;;;;5060242;28;20044;-55
2023/06/10 10:39:28;;;;;;;7.90;4.35;;;27.60;67.50;;;;;;5060611;28;20037;-55
2023/06/10 10:41:54;;;;;;;7.40;4.28;;;27.50;67.50;;;;;;5059675;28;20049;-55
2023/06/10 10:44:20;;;;;;;4.93;3.63;;;27.50;67.60;;;;;;5060470;28;20037;-55
2023/06/10 10:46:50;;;;;;;6.07;3.70;;;27.40;67.80;;;;;;5059761;28;20076;-55
2023/06/10 10:49:18;;;;;;;4.78;3.70;;;27.40;68.70;;;;;;5060393;28;20049;-55
2023/06/10 10:51:59;;;;;;;5.65;3.97;;;27.40;69.40;;;;;;5059759;28;20152;-55
2023/06/10 10:54:33;;;;;;;5.10;3.88;;;27.40;69.70;;;;;;5059819;28;20048;-55
2023/06/10 10:57:12;;;;;;;7.72;3.90;;;27.40;69.10;;;;;;5059377;28;20048;-55
2023/06/10 10:59:52;;;;;;;5.97;3.78;;;27.40;69.60;;;;;;5059574;28;20037;-55
2023/06/10 11:02:40;;;;;;;6.55;3.70;;;27.50;69.60;;;;;;5058469;28;20044;-55
2023/06/10 11:05:07;;;;;;;6.47;3.90;;;27.50;68.70;;;;;;5060006;28;20048;-55
2023/06/10 11:07:34;;;;;;;6.97;3.92;;;27.50;69.70;;;;;;5058109;28;20032;-54
2023/06/10 11:10:08;;;;;;;7.30;4.07;;;27.60;70.10;;;;;;5059723;28;20490;-55
2023/06/10 11:12:46;;;;;;;6.70;4.03;;;27.60;70.20;;;;;;5059205;28;20049;-55
2023/06/10 11:15:32;;;;;;;5.80;3.92;;;27.60;69.80;;;;;;5059592;28;20045;-55
2023/06/10 11:18:10;;;;;;;6.53;4.10;;;27.80;68.40;;;;;;5059714;28;20049;-55
2023/06/10 11:20:55;;;;;;;8.07;4.00;;;27.80;68.40;;;;;;5058948;28;20055;-55
2023/06/10 11:23:32;;;;;;;6.35;3.83;;;27.90;69.60;;;;;;5059494;28;20045;-55
2023/06/10 11:26:38;;;;;;;5.35;4.13;;;28.00;69.30;;;;;;5059305;28;20098;-55
2023/06/10 11:29:08;;;;;;;6.97;3.72;;;28.00;69.40;;;;;;5057605;28;20056;-55
2023/06/10 11:31:42;;;;;;;3.95;3.55;;;28.00;68.40;;;;;;5059478;28;20037;-55
2023/06/10 11:34:08;;;;;;;5.50;3.80;;;28.00;67.70;;;;;;5058959;28;20107;-55
2023/06/10 11:36:40;;;;;;;5.95;3.70;;;28.10;67.70;;;;;;5059227;28;20045;-55
2023/06/10 11:39:06;;;;;;;6.75;3.80;;;28.10;67.20;;;;;;5059358;28;20049;-54
2023/06/10 11:41:35;;;;;;;4.97;3.63;;;28.20;67.20;;;;;;5057799;28;20041;-55
2023/06/10 11:44:08;;;;;;;5.10;3.50;;;28.30;66.90;;;;;;5059591;28;20102;-55
2023/06/10 11:46:34;;;;;;;5.72;3.47;;;28.40;66.50;;;;;;5058706;28;20053;-55
2023/06/10 11:49:02;;;;;;;5.15;3.55;;;28.40;66.50;;;;;;5059166;28;20037;-55
2023/06/10 11:51:34;;;;;;;5.18;3.50;;;28.50;66.40;;;;;;5058740;28;20083;-55
2023/06/10 11:54:00;;;;;;;4.32;3.30;;;28.60;66.10;;;;;;5059178;28;20466;-55
2023/06/10 11:56:27;;;;;;;3.75;3.20;;;28.70;65.90;;;;;;5059458;28;20052;-55
2023/06/10 11:58:54;;;;;;;5.30;3.58;;;28.70;65.60;;;;;;5058661;28;20121;-56
2023/06/10 12:01:22;;;;;;;5.68;3.70;;;28.80;64.50;;;;;;5059329;28;20052;-55
2023/06/10 12:03:55;;;;;;;5.60;3.40;;;28.80;64.10;;;;;;5058537;28;20044;-55
2023/06/10 12:06:21;;;;;;;5.03;3.50;;;28.90;63.60;;;;;;5058973;28;20041;-55
2023/06/10 12:08:47;;;;;;;4.72;3.38;;;29.00;63.70;;;;;;5061841;28;20052;-55
2023/06/10 12:11:12;;;;;;;4.57;3.40;;;29.00;63.00;;;;;;5065513;28;20048;-55
2023/06/10 12:13:49;;;;;;;4.47;3.17;;;29.20;63.10;;;;;;5065893;28;20037;-54
2023/06/10 12:16:16;;;;;;;5.28;3.50;;;29.30;61.00;;;;;;5064965;28;20052;-55
2023/06/10 12:18:44;;;;;;;4.68;3.20;;;29.30;61.40;;;;;;5064154;28;20566;-55
2023/06/10 12:21:18;;;;;;;5.03;3.40;;;29.40;61.10;;;;;;5064806;28;20109;-55
2023/06/10 12:24:04;;;;;;;4.88;3.45;;;29.30;60.50;;;;;;5065599;28;20478;-56
2023/06/10 12:26:37;;;;;;;3.58;3.03;;;29.50;60.30;;;;;;5065616;28;20092;-55
2023/06/10 12:29:18;;;;;;;5.45;3.30;;;29.50;59.30;;;;;;5064809;28;20052;-56
2023/06/10 12:32:05;;;;;;;5.55;3.40;;;29.60;58.70;;;;;;5063747;28;20072;-56
2023/06/10 12:34:39;;;;;;;4.40;3.10;;;29.80;58.90;;;;;;5065381;28;20088;-55
2023/06/10 12:37:13;;;;;;;5.70;3.17;;;30.10;59.30;;;;;;5065229;28;20097;-56
2023/06/10 12:39:39;;;;;;;4.30;3.20;;;30.40;58.30;;;;;;5065719;28;20115;-55
2023/06/10 12:42:08;;;;;;;4.78;2.90;;;30.60;58.40;;;;;;5064698;28;20048;-56
2023/06/10 12:44:38;;;;;;;5.22;3.00;;;30.90;57.60;;;;;;5065371;28;20041;-56
2023/06/10 12:47:13;;;;;;;5.70;2.97;;;31.20;57.50;;;;;;5064945;28;20041;-56
2023/06/10 12:49:39;;;;;;;4.95;3.20;;;31.30;56.50;;;;;;5065045;28;20072;-55